Latest Weather Observations for Dartmoor

IDV60801

Issued at 4:22 pm EST Sunday 11 April 2021 (issued every 10 minutes, with the page automatically refreshed every 10 minutes)

About weather observations | Map of weather stations | Latest weather observations for VIC | Other Formats
Station Details ID: 090194 Name: DARTMOOR Lat: -37.92 Lon: 141.26 Height: 51.0 m
Data from the previous 72 hours. | See also: Recent months at Dartmoor
Date/Time
EST
Temp
°C
App
Temp
°C
Dew
Point
°C
Rel
Hum
%
Delta-T
°C
Wind Press
QNH
hPa
Press
MSL
hPa
Rain since
9am
mm
Dir  Spd
km/h
Gust
km/h
Spd
kts
Gust
kts
11/04:00pm 14.1 9.2 6.7 61 3.6 SSW 22 37 12 20 1021.9 1021.9 0.0
11/03:30pm 13.5 9.4 7.7 68 2.9 SSW 19 24 10 13 1021.8 1021.8 0.0
11/03:00pm 12.8 8.3 8.5 75 2.1 SSW 22 39 12 21 1021.7 1021.7 0.0
11/02:30pm 13.8 8.6 7.3 65 3.2 SSW 24 39 13 21 1021.2 1021.2 0.0
11/02:00pm 13.3 8.7 8.0 70 2.6 SSW 22 30 12 16 1021.0 1021.0 0.0
11/01:36pm 14.3 7.9 7.1 62 3.5 SSW 30 50 16 27 1021.0 1021.0 0.0
11/01:30pm 14.4 7.5 6.3 58 3.9 SSW 32 50 17 27 1021.0 1021.0 0.0
11/01:27pm 14.9 8.7 6.2 56 4.2 SSW 28 50 15 27 1021.0 1021.0 0.0
11/01:00pm 13.7 8.4 7.0 64 3.2 SSW 24 39 13 21 1021.0 1021.0 0.0
11/12:30pm 13.7 8.4 6.6 62 3.4 SSW 24 39 13 21 1021.2 1021.2 0.0
11/12:00pm 14.2 8.2 5.3 55 4.2 S 26 43 14 23 1021.1 1021.1 0.0
11/11:31am 14.0 7.7 5.6 57 4.0 SSW 28 46 15 25 1021.0 1021.0 0.0
11/11:30am 13.8 7.1 5.7 58 3.8 SSW 30 46 16 25 1021.0 1021.0 0.0
11/11:00am 14.3 6.9 4.0 50 4.7 SSW 32 52 17 28 1020.8 1020.8 0.0
11/10:38am 13.9 7.7 6.3 60 3.6 SSW 28 46 15 25 1020.7 1020.7 0.0
11/10:30am 14.1 9.6 6.9 62 3.5 SSW 20 33 11 18 1020.7 1020.7 0.0
11/10:18am 13.9 7.8 6.7 62 3.5 SSW 28 48 15 26 1020.6 1020.6 0.0
11/10:00am 12.9 8.5 7.6 70 2.6 SSW 20 33 11 18 1020.5 1020.5 0.0
11/09:30am 12.8 7.9 6.8 67 2.9 SSW 22 35 12 19 1020.1 1020.1 0.0
11/09:00am 11.7 6.5 7.4 75 2.1 SSW 24 46 13 25 1019.8 1019.8 5.4
11/08:30am 11.5 6.6 6.8 73 2.2 SSW 22 43 12 23 1019.4 1019.4 5.4
11/08:00am 11.2 6.3 6.7 74 2.1 SSW 22 32 12 17 1019.2 1019.2 5.4
11/07:30am 10.4 4.3 6.7 78 1.7 SSW 28 43 15 23 1018.8 1018.8 5.4
11/07:00am 9.9 6.0 7.2 83 1.3 SSW 17 24 9 13 1018.3 1018.3 5.4
11/06:30am 9.8 5.5 7.1 83 1.3 SSW 19 30 10 16 1017.9 1017.9 5.4
11/06:00am 10.2 5.6 5.6 73 2.1 SW 19 26 10 14 1017.5 1017.5 5.2
11/05:30am 10.3 5.9 6.5 77 1.8 SSW 19 32 10 17 1017.2 1017.2 5.2
11/05:00am 9.4 5.9 7.2 86 1.0 SW 15 22 8 12 1016.8 1016.8 5.2
11/04:30am 10.0 5.6 6.7 80 1.6 SW 19 35 10 19 1016.4 1016.4 5.0
11/04:00am 8.8 5.5 7.9 94 0.4 SW 15 22 8 12 1015.9 1015.9 5.0
11/03:30am 8.8 5.2 8.4 97 0.2 SW 17 39 9 21 1016.1 1016.1 5.0
11/03:00am 8.7 4.5 8.3 97 0.2 SSW 20 35 11 19 1015.8 1015.8 5.0
11/02:47am 8.6 2.8 7.8 95 0.4 SW 28 61 15 33 1016.0 1016.0 4.8
11/02:30am 9.7 3.9 6.4 80 1.5 SW 26 44 14 24 1015.8 1015.8 4.6
11/02:00am 10.5 5.1 4.4 66 2.7 SW 22 33 12 18 1015.4 1015.4 4.6
11/01:30am 9.8 5.0 5.4 74 2.0 SW 20 32 11 17 1015.4 1015.4 4.6
11/01:09am 10.4 4.1 5.8 73 2.1 SSW 28 48 15 26 1015.5 1015.5 4.6
11/01:00am 10.2 4.8 6.2 76 1.9 SSW 24 37 13 20 1015.3 1015.3 4.6
11/12:30am 9.4 5.9 7.0 85 1.1 SW 15 24 8 13 1015.1 1015.1 4.6
11/12:00am 8.5 4.7 7.7 95 0.4 SW 17 28 9 15 1015.2 1015.2 4.6
 
Date/Time
EST
Temp
°C
App
Temp
°C
Dew
Point
°C
Rel
Hum
%
Delta-T
°C
Wind Press
QNH
hPa
Press
MSL
hPa
Rain since
9am
mm
Dir  Spd
km/h
Gust
km/h
Spd
kts
Gust
kts
10/11:40pm 9.2 4.2 8.0 92 0.6 SSW 24 44 13 24 1015.0 1015.0 4.6
10/11:30pm 8.7 6.4 7.5 92 0.6 SSW 9 24 5 13 1015.0 1015.0 4.0
10/11:00pm 8.5 4.9 6.8 89 0.8 SW 15 26 8 14 1014.7 1014.7 4.0
10/10:30pm 9.9 3.9 7.0 82 1.4 SSW 28 44 15 24 1014.7 1014.7 3.2
10/10:26pm 10.2 4.5 6.5 78 1.7 SSW 26 44 14 24 1014.8 1014.8 3.2
10/10:00pm 9.5 6.2 6.2 80 1.5 SW 13 20 7 11 1014.4 1014.4 3.2
10/09:30pm 10.2 6.3 7.1 81 1.5 SW 17 30 9 16 1014.3 1014.3 3.2
10/09:00pm 9.6 7.3 9.0 96 0.3 SW 11 17 6 9 1013.9 1013.9 3.2
10/08:30pm 9.4 6.7 8.9 97 0.2 SW 13 20 7 11 1013.7 1013.7 3.2
10/08:00pm 9.4 6.7 8.9 97 0.2 WSW 13 20 7 11 1013.3 1013.2 3.0
10/07:30pm 9.6 6.6 9.1 97 0.2 WSW 15 24 8 13 1013.2 1013.1 2.6
10/07:00pm 9.9 6.2 9.4 97 0.2 SW 19 37 10 20 1013.1 1013.0 2.2
10/06:30pm 9.8 8.0 9.3 97 0.2 W 9 19 5 10 1012.4 1012.3 1.0
10/06:00pm 10.0 8.6 9.5 97 0.3 W 7 13 4 7 1012.2 1012.1 1.0
10/05:30pm 10.6 5.3 8.5 87 1.0 SW 26 54 14 29 1012.4 1012.3 1.0
10/05:00pm 13.1 8.6 6.9 66 3.0 WSW 20 39 11 21 1012.0 1011.9 0.2
10/04:30pm 12.8 8.8 6.8 67 2.9 WSW 17 28 9 15 1011.9 1011.8 0.2
10/04:00pm 13.9 9.0 7.0 63 3.4 SW 22 44 12 24 1011.7 1011.6 0.2
10/03:30pm 13.4 7.9 7.6 68 2.9 SW 26 43 14 23 1011.6 1011.5 0.2
10/03:00pm 13.8 8.6 7.3 65 3.2 SW 24 39 13 21 1011.8 1011.7 0.2
10/02:30pm 12.4 9.2 9.8 84 1.3 SW 17 30 9 16 1011.8 1011.7 0.2
10/02:17pm 12.3 6.6 8.4 77 1.9 SW 28 54 15 29 1011.9 1011.8 0.0
10/02:00pm 15.0 9.4 7.3 60 3.8 SW 26 52 14 28 1011.4 1011.3 0.0
10/01:30pm 15.4 9.8 8.6 64 3.5 SW 28 54 15 29 1011.8 1011.7 0.0
10/01:23pm 14.1 8.3 7.9 66 3.1 SW 28 54 15 29 1011.8 1011.7 0.0
10/01:00pm 14.4 9.0 9.4 72 2.6 SW 28 41 15 22 1011.8 1011.7 0.0
10/12:30pm 15.2 9.3 6.0 54 4.4 SW 26 43 14 23 1011.7 1011.6 0.0
10/12:00pm 15.1 11.0 8.8 66 3.2 SW 20 37 11 20 1011.8 1011.7 0.0
10/11:30am 14.4 8.9 7.7 64 3.3 WSW 26 43 14 23 1011.6 1011.5 0.0
10/11:00am 14.0 11.3 10.2 78 2.0 WSW 15 24 8 13 1011.5 1011.4 0.0
10/10:30am 13.3 9.5 11.2 87 1.1 SW 22 35 12 19 1011.5 1011.4 0.0
10/10:00am 15.5 11.0 8.5 63 3.6 SW 22 39 12 21 1011.1 1011.0 0.0
10/09:30am 14.3 11.1 8.5 68 2.9 WSW 15 24 8 13 1011.0 1010.9 0.0
10/09:00am 13.5 9.8 9.4 76 2.1 SW 19 35 10 19 1010.9 1010.8 1.8
10/08:30am 12.2 9.9 11.7 97 0.3 WSW 15 26 8 14 1010.4 1010.3 1.8
10/08:00am 12.2 10.3 11.9 98 0.2 WSW 13 28 7 15 1010.0 1009.9 1.6
10/07:30am 11.9 10.3 11.6 98 0.2 W 11 17 6 9 1009.5 1009.4 1.6
10/07:00am 11.2 9.8 10.9 98 0.2 W 9 17 5 9 1009.4 1009.3 1.6
10/06:30am 10.8 9.3 10.5 98 0.2 NW 9 13 5 7 1008.6 1008.5 1.2
10/06:00am 10.9 9.8 10.6 98 0.2 NW 7 11 4 6 1008.8 1008.7 1.2
10/05:30am 11.3 9.9 11.0 98 0.2 NW 9 13 5 7 1008.7 1008.6 1.2
10/05:00am 11.5 10.2 11.2 98 0.2 NW 9 13 5 7 1008.5 1008.4 1.2
10/04:30am 11.5 10.6 11.2 98 0.2 NW 7 9 4 5 1008.7 1008.6 1.0
10/04:00am 11.5 10.2 11.2 98 0.2 NW 9 13 5 7 1008.8 1008.7 0.8
10/03:30am 11.3 9.9 11.0 98 0.2 NW 9 15 5 8 1008.9 1008.8 0.6
10/03:00am 11.2 9.4 10.9 98 0.2 NW 11 15 6 8 1009.3 1009.2 0.6
10/02:30am 11.1 10.0 10.8 98 0.2 NW 7 9 4 5 1009.5 1009.4 0.6
10/02:00am 11.0 9.9 10.7 98 0.2 NW 7 11 4 6 1009.9 1009.8 0.6
10/01:30am 11.0 10.1 10.7 98 0.2 WNW 6 11 3 6 1010.0 1009.9 0.6
10/01:00am 10.9 9.0 10.6 98 0.2 NW 11 15 6 8 1010.0 1009.9 0.6
10/12:30am 10.9 9.1 10.7 99 0.1 NNW 11 17 6 9 1010.2 1010.1 0.6
10/12:00am 11.0 9.9 10.7 98 0.2 NNW 7 9 4 5 1010.7 1010.6 0.6
 
Date/Time
EST
Temp
°C
App
Temp
°C
Dew
Point
°C
Rel
Hum
%
Delta-T
°C
Wind Press
QNH
hPa
Press
MSL
hPa
Rain since
9am
mm
Dir  Spd
km/h
Gust
km/h
Spd
kts
Gust
kts
09/11:30pm 11.0 10.1 10.7 98 0.2 NNW 6 9 3 5 1011.0 1010.9 0.6
09/11:00pm 11.0 9.2 10.7 98 0.2 NW 11 13 6 7 1011.4 1011.3 0.6
09/10:30pm 11.1 10.0 10.8 98 0.2 NNW 7 9 4 5 1011.4 1011.3 0.4
09/10:00pm 11.1 11.0 10.8 98 0.2 N 2 4 1 2 1011.5 1011.4 0.4
09/09:30pm 11.6 11.6 11.3 98 0.2 NNW 2 4 1 2 1011.6 1011.5 0.4
09/09:00pm 11.8 11.1 11.5 98 0.2 NW 6 6 3 3 1011.7 1011.6 0.4
09/08:30pm 11.9 10.3 11.6 98 0.2 WSW 11 17 6 9 1012.0 1011.9 0.4
09/08:00pm 13.2 11.8 9.6 79 1.8 WSW 7 9 4 5 1011.6 1011.5 0.2
09/07:30pm 13.6 12.6 8.9 73 2.4 W 4 7 2 4 1011.3 1011.2 0.2
09/07:00pm 13.6 12.2 8.7 72 2.5 WNW 6 7 3 4 1011.2 1011.1 0.2
09/06:30pm 13.8 12.7 8.4 70 2.7 W 4 6 2 3 1011.0 1010.9 0.2
09/06:00pm 14.2 12.5 8.4 68 2.9 SW 7 13 4 7 1010.9 1010.8 0.2
09/05:30pm 14.7 12.2 8.0 64 3.4 SSW 11 17 6 9 1011.0 1010.9 0.2
09/05:00pm 15.1 12.0 7.2 59 3.9 SSW 13 20 7 11 1011.0 1010.9 0.2
09/04:30pm 15.5 12.1 7.5 59 4.0 SW 15 24 8 13 1011.1 1011.0 0.2
09/04:00pm 16.0 12.7 8.2 60 4.0 SSW 15 22 8 12 1011.1 1011.0 0.2
09/03:30pm 16.1 12.9 8.3 60 4.0 SSW 15 22 8 12 1011.1 1011.0 0.2
09/03:00pm 15.9 12.3 8.2 60 3.9 SSW 17 24 9 13 1011.1 1011.0 0.2
09/02:30pm 16.7 13.0 7.9 56 4.5 SW 17 30 9 16 1011.1 1011.0 0.2
09/02:00pm 16.8 12.9 7.2 53 4.8 SSW 17 26 9 14 1011.4 1011.3 0.2
09/01:30pm 16.9 13.5 9.3 61 4.0 SSW 17 26 9 14 1011.8 1011.7 0.2
09/01:00pm 18.0 14.8 8.6 54 4.9 SSW 15 22 8 12 1011.8 1011.7 0.2
09/12:30pm 16.0 12.1 8.7 62 3.7 SSW 19 28 10 15 1012.2 1012.1 0.2
09/12:00pm 17.1 14.0 9.0 59 4.2 SW 15 28 8 15 1012.2 1012.1 0.2
09/11:30am 15.7 12.3 9.1 65 3.4 SSW 17 30 9 16 1012.2 1012.1 0.2
09/11:00am 15.7 13.3 10.0 69 3.0 SSW 13 22 7 12 1012.3 1012.2 0.2
09/10:30am 15.1 13.2 11.9 81 1.7 SW 13 28 7 15 1012.4 1012.3 0.2
09/10:00am 14.3 13.4 12.7 90 0.9 SW 9 13 5 7 1012.4 1012.3 0.2
09/09:30am 13.2 11.9 12.4 95 0.4 SW 11 22 6 12 1012.4 1012.3 0.0
09/09:00am 14.1 11.3 11.3 83 1.5 SSW 17 24 9 13 1012.0 1011.9 5.2
09/08:30am 13.7 13.1 11.6 87 1.1 WSW 6 9 3 5 1011.4 1011.3 5.2
09/08:00am 12.1 11.5 11.6 97 0.3 W 6 9 3 5 1011.3 1011.2 5.2
09/07:30am 11.5 10.6 10.7 95 0.4 WNW 6 9 3 5 1011.0 1010.9 5.2
09/07:00am 10.8 10.2 10.3 97 0.3 WSW 4 11 2 6 1010.6 1010.5 5.2
09/06:30am 10.7 9.8 9.3 91 0.7 WSW 4 7 2 4 1010.4 1010.3 5.2
09/06:00am 11.2 9.8 8.8 85 1.2 WSW 6 9 3 5 1010.3 1010.2 5.2
09/05:30am 11.5 10.8 10.2 92 0.7 W 4 6 2 3 1010.1 1010.0 5.2
09/05:00am 11.9 10.6 9.1 83 1.4 SW 6 9 3 5 1010.0 1009.9 5.2
09/04:30am 11.6 10.9 10.2 91 0.7 SSW 4 7 2 4 1009.9 1009.8 5.2
09/04:00am 11.5 10.8 10.2 92 0.7 SW 4 6 2 3 1009.6 1009.5 5.2
09/03:30am 11.5 10.5 10.4 93 0.6 SW 6 9 3 5 1009.5 1009.4 5.2
09/03:00am 11.4 10.6 10.9 97 0.3 SW 6 7 3 4 1009.4 1009.3 5.2
09/02:30am 11.9 11.0 11.4 97 0.3 SW 7 11 4 6 1009.7 1009.6 5.2
09/02:00am 12.4 11.3 12.1 98 0.2 SW 9 15 5 8 1009.6 1009.5 5.2
09/01:30am 13.1 11.5 12.8 98 0.2 SSW 13 20 7 11 1009.6 1009.5 5.2
09/01:00am 13.3 12.2 13.0 98 0.2 SSW 11 17 6 9 1009.4 1009.3 5.2
09/12:30am 13.3 11.0 13.0 98 0.2 SSW 17 28 9 15 1009.6 1009.5 5.2
09/12:00am 13.8 13.2 13.6 99 0.1 SW 9 15 5 8 1009.2 1009.1 5.2
 
Date/Time
EST
Temp
°C
App
Temp
°C
Dew
Point
°C
Rel
Hum
%
Delta-T
°C
Wind Press
QNH
hPa
Press
MSL
hPa
Rain since
9am
mm
Dir  Spd
km/h
Gust
km/h
Spd
kts
Gust
kts
08/11:30pm 13.8 13.2 13.5 98 0.2 SSW 9 13 5 7 1009.0 1008.9 5.0
08/11:00pm 13.7 11.0 13.4 98 0.2 SSW 20 32 11 17 1008.9 1008.8 5.0
08/10:30pm 14.9 13.9 14.6 98 0.2 SW 13 24 7 13 1008.6 1008.5 3.6
08/10:00pm 15.7 15.8 15.4 98 0.2 WSW 9 13 5 7 1008.0 1007.9 3.0
08/09:30pm 16.1 16.7 15.8 98 0.2 W 7 13 4 7 1007.8 1007.8 2.2
08/09:00pm 16.7 17.1 16.4 98 0.2 WNW 9 17 5 9 1007.7 1007.7 1.4
08/08:30pm 16.8 17.9 16.5 98 0.2 WNW 6 7 3 4 1007.3 1007.3 0.4
08/08:00pm 16.8 18.6 16.5 98 0.2 NNE 2 4 1 2 1006.6 1006.6 0.4
08/07:30pm 17.0 18.5 16.7 98 0.2 NNE 4 4 2 2 1006.5 1006.5 0.2
08/07:00pm 17.4 19.5 17.1 98 0.2 WSW 2 4 1 2 1006.9 1006.9 0.2
08/06:30pm 17.9 19.4 16.6 92 0.8 WNW 4 7 2 4 1006.9 1006.9 0.0
08/06:00pm 18.4 19.1 16.0 86 1.4 WNW 7 11 4 6 1007.2 1007.2 0.0
08/05:30pm 18.7 19.5 15.8 83 1.7 WNW 6 7 3 4 1006.5 1006.5 0.0
08/05:00pm 19.4 19.0 15.1 76 2.5 W 11 20 6 11 1006.8 1006.8 0.0
08/04:30pm 20.4 18.0 12.6 61 4.4 W 17 30 9 16 1007.0 1007.0 0.0

Other formats

Comma delimited format used in spreadsheet applications
http://www.bom.gov.au/fwo/IDV60801/IDV60801.95822.axf

JavaScript Object Notation format (JSON) in row-major order
http://www.bom.gov.au/fwo/IDV60801/IDV60801.95822.json

Data quality

Most of these data are generated automatically and are frequently updated. Quality checks on data are not normally performed. It is possible for incorrect values to appear. Refer to information at About Latest Weather Observations and please check the disclaimer before using these data.